sensor_id;sensor_type;location;lat;lon;timestamp;P1;durP1;ratioP1;P2;durP2;ratioP2
7587;SDS011;3835;48.850;8.938;2022-09-30T00:02:19;18.17;;;16.83;;
7587;SDS011;3835;48.850;8.938;2022-09-30T00:04:45;18.07;;;16.57;;
7587;SDS011;3835;48.850;8.938;2022-09-30T00:07:12;18.17;;;14.03;;
7587;SDS011;3835;48.850;8.938;2022-09-30T00:09:39;16.13;;;14.80;;
7587;SDS011;3835;48.850;8.938;2022-09-30T00:12:06;17.00;;;15.60;;
7587;SDS011;3835;48.850;8.938;2022-09-30T00:14:34;16.10;;;14.70;;
7587;SDS011;3835;48.850;8.938;2022-09-30T00:17:00;16.30;;;14.97;;
7587;SDS011;3835;48.850;8.938;2022-09-30T00:19:27;16.87;;;15.47;;
7587;SDS011;3835;48.850;8.938;2022-09-30T00:21:54;16.83;;;15.43;;
7587;SDS011;3835;48.850;8.938;2022-09-30T00:24:21;17.33;;;15.93;;
7587;SDS011;3835;48.850;8.938;2022-09-30T00:26:47;18.67;;;16.87;;
7587;SDS011;3835;48.850;8.938;2022-09-30T00:29:14;18.40;;;16.97;;
7587;SDS011;3835;48.850;8.938;2022-09-30T00:31:42;16.80;;;15.40;;
7587;SDS011;3835;48.850;8.938;2022-09-30T00:34:09;18.30;;;16.80;;
7587;SDS011;3835;48.850;8.938;2022-09-30T00:36:37;16.63;;;15.07;;
7587;SDS011;3835;48.850;8.938;2022-09-30T00:39:08;16.57;;;15.23;;
7587;SDS011;3835;48.850;8.938;2022-09-30T00:41:36;17.17;;;15.77;;
7587;SDS011;3835;48.850;8.938;2022-09-30T00:47:11;15.77;;;14.47;;
7587;SDS011;3835;48.850;8.938;2022-09-30T00:50:04;16.90;;;15.13;;
7587;SDS011;3835;48.850;8.938;2022-09-30T00:52:41;18.53;;;16.67;;
7587;SDS011;3835;48.850;8.938;2022-09-30T00:55:11;16.27;;;14.97;;
7587;SDS011;3835;48.850;8.938;2022-09-30T00:57:45;17.30;;;15.87;;
7587;SDS011;3835;48.850;8.938;2022-09-30T01:00:12;17.37;;;15.87;;
7587;SDS011;3835;48.850;8.938;2022-09-30T01:02:40;15.23;;;14.13;;
7587;SDS011;3835;48.850;8.938;2022-09-30T01:05:07;15.60;;;14.40;;
7587;SDS011;3835;48.850;8.938;2022-09-30T01:07:35;15.40;;;14.10;;
7587;SDS011;3835;48.850;8.938;2022-09-30T01:10:02;15.83;;;14.33;;
7587;SDS011;3835;48.850;8.938;2022-09-30T01:12:30;14.30;;;13.30;;
7587;SDS011;3835;48.850;8.938;2022-09-30T01:14:57;15.67;;;14.23;;
7587;SDS011;3835;48.850;8.938;2022-09-30T01:17:27;14.67;;;13.37;;
7587;SDS011;3835;48.850;8.938;2022-09-30T01:23:14;14.87;;;13.67;;
7587;SDS011;3835;48.850;8.938;2022-09-30T01:26:14;16.13;;;14.83;;
7587;SDS011;3835;48.850;8.938;2022-09-30T01:28:58;17.20;;;14.73;;
7587;SDS011;3835;48.850;8.938;2022-09-30T01:31:52;15.57;;;14.40;;
7587;SDS011;3835;48.850;8.938;2022-09-30T01:34:27;15.87;;;14.63;;
7587;SDS011;3835;48.850;8.938;2022-09-30T01:37:06;17.60;;;16.10;;
7587;SDS011;3835;48.850;8.938;2022-09-30T01:39:41;17.90;;;16.50;;
7587;SDS011;3835;48.850;8.938;2022-09-30T01:42:21;18.13;;;16.70;;
7587;SDS011;3835;48.850;8.938;2022-09-30T01:44:54;18.37;;;17.00;;
7587;SDS011;3835;48.850;8.938;2022-09-30T01:47:29;17.67;;;16.30;;
7587;SDS011;3835;48.850;8.938;2022-09-30T01:50:02;18.43;;;17.07;;
7587;SDS011;3835;48.850;8.938;2022-09-30T01:52:34;17.93;;;16.43;;
7587;SDS011;3835;48.850;8.938;2022-09-30T01:55:07;17.47;;;16.17;;
7587;SDS011;3835;48.850;8.938;2022-09-30T01:57:42;16.50;;;15.40;;
7587;SDS011;3835;48.850;8.938;2022-09-30T02:00:16;17.37;;;15.80;;
7587;SDS011;3835;48.850;8.938;2022-09-30T02:02:46;18.43;;;16.70;;
7587;SDS011;3835;48.850;8.938;2022-09-30T02:05:17;18.60;;;16.93;;
7587;SDS011;3835;48.850;8.938;2022-09-30T02:07:49;18.20;;;16.60;;
7587;SDS011;3835;48.850;8.938;2022-09-30T02:10:21;16.60;;;15.33;;
7587;SDS011;3835;48.850;8.938;2022-09-30T02:12:53;17.40;;;16.10;;
7587;SDS011;3835;48.850;8.938;2022-09-30T02:15:23;20.07;;;17.93;;
7587;SDS011;3835;48.850;8.938;2022-09-30T02:17:57;17.80;;;16.43;;
7587;SDS011;3835;48.850;8.938;2022-09-30T02:20:29;16.63;;;15.53;;
7587;SDS011;3835;48.850;8.938;2022-09-30T02:23:02;18.73;;;17.43;;
7587;SDS011;3835;48.850;8.938;2022-09-30T02:25:32;18.13;;;16.83;;
7587;SDS011;3835;48.850;8.938;2022-09-30T02:28:04;16.97;;;15.63;;
7587;SDS011;3835;48.850;8.938;2022-09-30T02:30:34;15.33;;;14.37;;
7587;SDS011;3835;48.850;8.938;2022-09-30T02:33:05;16.97;;;15.83;;
7587;SDS011;3835;48.850;8.938;2022-09-30T02:35:37;18.20;;;16.87;;
7587;SDS011;3835;48.850;8.938;2022-09-30T02:38:11;17.07;;;15.73;;
7587;SDS011;3835;48.850;8.938;2022-09-30T02:40:42;16.70;;;15.60;;
7587;SDS011;3835;48.850;8.938;2022-09-30T02:43:12;17.03;;;15.83;;
7587;SDS011;3835;48.850;8.938;2022-09-30T02:45:42;16.83;;;15.73;;
7587;SDS011;3835;48.850;8.938;2022-09-30T02:48:16;17.30;;;16.00;;
7587;SDS011;3835;48.850;8.938;2022-09-30T02:50:53;15.43;;;14.23;;
7587;SDS011;3835;48.850;8.938;2022-09-30T02:53:30;15.83;;;14.63;;
7587;SDS011;3835;48.850;8.938;2022-09-30T02:56:11;15.10;;;14.00;;
7587;SDS011;3835;48.850;8.938;2022-09-30T02:58:44;14.83;;;13.73;;
7587;SDS011;3835;48.850;8.938;2022-09-30T03:01:12;13.80;;;12.70;;
7587;SDS011;3835;48.850;8.938;2022-09-30T03:03:43;16.33;;;15.03;;
7587;SDS011;3835;48.850;8.938;2022-09-30T03:06:12;17.27;;;16.07;;
7587;SDS011;3835;48.850;8.938;2022-09-30T03:08:40;16.07;;;14.73;;
7587;SDS011;3835;48.850;8.938;2022-09-30T03:11:09;15.30;;;14.20;;
7587;SDS011;3835;48.850;8.938;2022-09-30T03:13:50;17.70;;;16.40;;
7587;SDS011;3835;48.850;8.938;2022-09-30T03:16:52;15.97;;;14.63;;
7587;SDS011;3835;48.850;8.938;2022-09-30T03:19:47;16.20;;;14.73;;
7587;SDS011;3835;48.850;8.938;2022-09-30T03:22:33;16.87;;;15.47;;
7587;SDS011;3835;48.850;8.938;2022-09-30T03:25:14;15.80;;;14.40;;
7587;SDS011;3835;48.850;8.938;2022-09-30T03:27:51;15.37;;;14.27;;
7587;SDS011;3835;48.850;8.938;2022-09-30T03:30:27;21.07;;;18.93;;
7587;SDS011;3835;48.850;8.938;2022-09-30T03:33:00;16.77;;;15.17;;
7587;SDS011;3835;48.850;8.938;2022-09-30T03:35:36;17.13;;;15.50;;
7587;SDS011;3835;48.850;8.938;2022-09-30T03:38:13;18.03;;;16.37;;
7587;SDS011;3835;48.850;8.938;2022-09-30T03:40:51;19.20;;;17.40;;
7587;SDS011;3835;48.850;8.938;2022-09-30T03:43:26;28.03;;;20.47;;
7587;SDS011;3835;48.850;8.938;2022-09-30T03:45:59;19.17;;;17.50;;
7587;SDS011;3835;48.850;8.938;2022-09-30T03:48:30;17.73;;;16.33;;
7587;SDS011;3835;48.850;8.938;2022-09-30T03:51:00;15.57;;;14.37;;
7587;SDS011;3835;48.850;8.938;2022-09-30T03:53:28;16.40;;;14.83;;
7587;SDS011;3835;48.850;8.938;2022-09-30T03:55:55;16.73;;;15.20;;
7587;SDS011;3835;48.850;8.938;2022-09-30T03:58:22;16.40;;;14.83;;
7587;SDS011;3835;48.850;8.938;2022-09-30T04:00:49;15.83;;;14.63;;
7587;SDS011;3835;48.850;8.938;2022-09-30T04:03:18;16.33;;;15.10;;
7587;SDS011;3835;48.850;8.938;2022-09-30T04:05:45;22.90;;;20.03;;
7587;SDS011;3835;48.850;8.938;2022-09-30T04:08:14;18.63;;;17.03;;
7587;SDS011;3835;48.850;8.938;2022-09-30T04:10:42;18.37;;;16.90;;
7587;SDS011;3835;48.850;8.938;2022-09-30T04:13:09;20.80;;;19.10;;
7587;SDS011;3835;48.850;8.938;2022-09-30T04:15:37;17.97;;;16.60;;
7587;SDS011;3835;48.850;8.938;2022-09-30T04:18:04;15.47;;;14.00;;
7587;SDS011;3835;48.850;8.938;2022-09-30T04:20:31;18.50;;;16.93;;
7587;SDS011;3835;48.850;8.938;2022-09-30T04:22:58;16.57;;;15.07;;
7587;SDS011;3835;48.850;8.938;2022-09-30T04:25:27;17.43;;;16.13;;
7587;SDS011;3835;48.850;8.938;2022-09-30T04:27:55;15.87;;;14.70;;
7587;SDS011;3835;48.850;8.938;2022-09-30T04:30:22;15.77;;;14.67;;
7587;SDS011;3835;48.850;8.938;2022-09-30T04:32:48;15.70;;;14.50;;
7587;SDS011;3835;48.850;8.938;2022-09-30T04:35:15;15.93;;;14.50;;
7587;SDS011;3835;48.850;8.938;2022-09-30T04:37:42;15.63;;;14.60;;
7587;SDS011;3835;48.850;8.938;2022-09-30T04:40:09;15.97;;;14.77;;
7587;SDS011;3835;48.850;8.938;2022-09-30T04:42:39;15.60;;;14.43;;
7587;SDS011;3835;48.850;8.938;2022-09-30T04:45:07;19.23;;;17.23;;
7587;SDS011;3835;48.850;8.938;2022-09-30T04:47:35;16.23;;;14.93;;
7587;SDS011;3835;48.850;8.938;2022-09-30T04:50:02;14.60;;;13.60;;
7587;SDS011;3835;48.850;8.938;2022-09-30T04:52:29;15.37;;;14.23;;
7587;SDS011;3835;48.850;8.938;2022-09-30T04:54:56;15.80;;;14.50;;
7587;SDS011;3835;48.850;8.938;2022-09-30T04:57:23;18.10;;;16.60;;
7587;SDS011;3835;48.850;8.938;2022-09-30T04:59:52;16.50;;;15.30;;
7587;SDS011;3835;48.850;8.938;2022-09-30T05:02:19;15.97;;;14.77;;
7587;SDS011;3835;48.850;8.938;2022-09-30T05:04:45;16.87;;;15.13;;
7587;SDS011;3835;48.850;8.938;2022-09-30T05:07:12;14.80;;;13.60;;
7587;SDS011;3835;48.850;8.938;2022-09-30T05:09:39;16.03;;;14.87;;
7587;SDS011;3835;48.850;8.938;2022-09-30T05:12:06;15.50;;;14.43;;
7587;SDS011;3835;48.850;8.938;2022-09-30T05:14:32;16.07;;;14.80;;
7587;SDS011;3835;48.850;8.938;2022-09-30T05:17:00;15.67;;;14.67;;
7587;SDS011;3835;48.850;8.938;2022-09-30T05:19:28;15.87;;;14.60;;
7587;SDS011;3835;48.850;8.938;2022-09-30T05:21:55;16.50;;;15.23;;
7587;SDS011;3835;48.850;8.938;2022-09-30T05:24:21;14.73;;;13.63;;
7587;SDS011;3835;48.850;8.938;2022-09-30T05:26:48;17.27;;;15.87;;
7587;SDS011;3835;48.850;8.938;2022-09-30T05:29:15;15.30;;;14.27;;
7587;SDS011;3835;48.850;8.938;2022-09-30T05:31:42;15.87;;;14.77;;
7587;SDS011;3835;48.850;8.938;2022-09-30T05:34:10;15.77;;;14.63;;
7587;SDS011;3835;48.850;8.938;2022-09-30T05:36:37;15.97;;;14.67;;
7587;SDS011;3835;48.850;8.938;2022-09-30T05:39:04;16.33;;;14.57;;
7587;SDS011;3835;48.850;8.938;2022-09-30T05:41:30;15.17;;;14.03;;
7587;SDS011;3835;48.850;8.938;2022-09-30T05:43:57;18.67;;;16.67;;
7587;SDS011;3835;48.850;8.938;2022-09-30T05:46:25;17.77;;;16.13;;
7587;SDS011;3835;48.850;8.938;2022-09-30T05:48:52;17.60;;;15.80;;
7587;SDS011;3835;48.850;8.938;2022-09-30T05:51:20;15.43;;;14.33;;
7587;SDS011;3835;48.850;8.938;2022-09-30T05:53:47;15.10;;;13.90;;
7587;SDS011;3835;48.850;8.938;2022-09-30T05:56:15;15.97;;;14.63;;
7587;SDS011;3835;48.850;8.938;2022-09-30T05:58:42;14.23;;;13.23;;
7587;SDS011;3835;48.850;8.938;2022-09-30T06:01:13;15.93;;;14.97;;
7587;SDS011;3835;48.850;8.938;2022-09-30T06:03:40;15.97;;;14.80;;
7587;SDS011;3835;48.850;8.938;2022-09-30T06:06:08;15.67;;;14.47;;
7587;SDS011;3835;48.850;8.938;2022-09-30T06:08:36;15.77;;;14.57;;
7587;SDS011;3835;48.850;8.938;2022-09-30T06:11:06;15.33;;;14.27;;
7587;SDS011;3835;48.850;8.938;2022-09-30T06:13:35;16.80;;;15.60;;
7587;SDS011;3835;48.850;8.938;2022-09-30T06:16:04;15.47;;;14.33;;
7587;SDS011;3835;48.850;8.938;2022-09-30T06:18:31;15.23;;;14.10;;
7587;SDS011;3835;48.850;8.938;2022-09-30T06:20:58;17.90;;;16.43;;
7587;SDS011;3835;48.850;8.938;2022-09-30T06:23:26;20.63;;;18.60;;
7587;SDS011;3835;48.850;8.938;2022-09-30T06:25:54;22.60;;;20.60;;
7587;SDS011;3835;48.850;8.938;2022-09-30T06:28:22;20.40;;;18.53;;
7587;SDS011;3835;48.850;8.938;2022-09-30T06:30:49;16.10;;;15.00;;
7587;SDS011;3835;48.850;8.938;2022-09-30T06:33:16;15.47;;;14.33;;
7587;SDS011;3835;48.850;8.938;2022-09-30T06:35:42;17.60;;;16.20;;
7587;SDS011;3835;48.850;8.938;2022-09-30T06:38:11;19.90;;;18.30;;
7587;SDS011;3835;48.850;8.938;2022-09-30T06:40:39;19.03;;;17.43;;
7587;SDS011;3835;48.850;8.938;2022-09-30T06:43:07;18.47;;;17.07;;
7587;SDS011;3835;48.850;8.938;2022-09-30T06:45:35;17.60;;;15.97;;
7587;SDS011;3835;48.850;8.938;2022-09-30T06:48:04;17.13;;;15.73;;
7587;SDS011;3835;48.850;8.938;2022-09-30T06:50:32;16.63;;;15.10;;
7587;SDS011;3835;48.850;8.938;2022-09-30T06:53:00;17.57;;;16.10;;
7587;SDS011;3835;48.850;8.938;2022-09-30T06:55:30;17.13;;;15.90;;
7587;SDS011;3835;48.850;8.938;2022-09-30T06:57:58;16.80;;;15.43;;
7587;SDS011;3835;48.850;8.938;2022-09-30T07:00:26;18.73;;;17.07;;
7587;SDS011;3835;48.850;8.938;2022-09-30T07:02:53;19.30;;;17.57;;
7587;SDS011;3835;48.850;8.938;2022-09-30T07:05:21;17.07;;;15.80;;
7587;SDS011;3835;48.850;8.938;2022-09-30T07:07:49;18.23;;;16.43;;
7587;SDS011;3835;48.850;8.938;2022-09-30T07:10:16;19.60;;;17.50;;
7587;SDS011;3835;48.850;8.938;2022-09-30T07:12:43;20.80;;;18.87;;
7587;SDS011;3835;48.850;8.938;2022-09-30T07:15:13;22.20;;;20.30;;
7587;SDS011;3835;48.850;8.938;2022-09-30T07:17:41;20.57;;;18.57;;
7587;SDS011;3835;48.850;8.938;2022-09-30T07:20:09;19.57;;;18.03;;
7587;SDS011;3835;48.850;8.938;2022-09-30T07:22:35;21.33;;;19.30;;
7587;SDS011;3835;48.850;8.938;2022-09-30T07:25:02;20.03;;;18.33;;
7587;SDS011;3835;48.850;8.938;2022-09-30T07:27:31;19.53;;;17.83;;
7587;SDS011;3835;48.850;8.938;2022-09-30T07:29:59;19.30;;;17.80;;
7587;SDS011;3835;48.850;8.938;2022-09-30T07:32:26;17.53;;;15.83;;
7587;SDS011;3835;48.850;8.938;2022-09-30T07:34:54;16.27;;;15.10;;
7587;SDS011;3835;48.850;8.938;2022-09-30T07:37:22;18.67;;;17.00;;
7587;SDS011;3835;48.850;8.938;2022-09-30T07:39:50;18.87;;;17.23;;
7587;SDS011;3835;48.850;8.938;2022-09-30T07:42:17;20.50;;;18.67;;
7587;SDS011;3835;48.850;8.938;2022-09-30T07:44:46;18.10;;;16.80;;
7587;SDS011;3835;48.850;8.938;2022-09-30T07:47:16;16.80;;;15.50;;
7587;SDS011;3835;48.850;8.938;2022-09-30T07:49:43;17.37;;;15.87;;
7587;SDS011;3835;48.850;8.938;2022-09-30T07:52:11;20.40;;;18.73;;
7587;SDS011;3835;48.850;8.938;2022-09-30T07:54:39;17.97;;;16.53;;
7587;SDS011;3835;48.850;8.938;2022-09-30T07:57:07;19.97;;;18.30;;
7587;SDS011;3835;48.850;8.938;2022-09-30T07:59:35;18.90;;;17.23;;
7587;SDS011;3835;48.850;8.938;2022-09-30T08:02:03;17.53;;;15.77;;
7587;SDS011;3835;48.850;8.938;2022-09-30T08:04:30;17.73;;;16.23;;
7587;SDS011;3835;48.850;8.938;2022-09-30T08:06:59;18.53;;;16.77;;
7587;SDS011;3835;48.850;8.938;2022-09-30T08:09:28;20.03;;;18.67;;
7587;SDS011;3835;48.850;8.938;2022-09-30T08:11:56;17.73;;;15.93;;
7587;SDS011;3835;48.850;8.938;2022-09-30T08:14:23;20.10;;;18.60;;
7587;SDS011;3835;48.850;8.938;2022-09-30T08:16:51;17.97;;;16.60;;
7587;SDS011;3835;48.850;8.938;2022-09-30T08:19:20;19.20;;;17.67;;
7587;SDS011;3835;48.850;8.938;2022-09-30T08:21:48;20.03;;;18.40;;
7587;SDS011;3835;48.850;8.938;2022-09-30T08:24:17;15.63;;;14.37;;
7587;SDS011;3835;48.850;8.938;2022-09-30T08:26:45;19.63;;;18.27;;
7587;SDS011;3835;48.850;8.938;2022-09-30T08:29:12;17.20;;;15.90;;
7587;SDS011;3835;48.850;8.938;2022-09-30T08:31:39;18.17;;;16.83;;
7587;SDS011;3835;48.850;8.938;2022-09-30T08:34:06;19.17;;;17.43;;
7587;SDS011;3835;48.850;8.938;2022-09-30T08:36:33;18.10;;;16.67;;
7587;SDS011;3835;48.850;8.938;2022-09-30T08:39:00;19.60;;;18.03;;
7587;SDS011;3835;48.850;8.938;2022-09-30T08:41:37;18.77;;;17.43;;
7587;SDS011;3835;48.850;8.938;2022-09-30T08:44:24;18.17;;;16.67;;
7587;SDS011;3835;48.850;8.938;2022-09-30T08:47:07;18.13;;;16.73;;
7587;SDS011;3835;48.850;8.938;2022-09-30T08:49:47;18.00;;;16.40;;
7587;SDS011;3835;48.850;8.938;2022-09-30T08:52:19;17.57;;;16.10;;
7587;SDS011;3835;48.850;8.938;2022-09-30T08:54:49;17.40;;;16.03;;
7587;SDS011;3835;48.850;8.938;2022-09-30T08:57:20;18.70;;;17.30;;
7587;SDS011;3835;48.850;8.938;2022-09-30T08:59:51;16.77;;;15.50;;
7587;SDS011;3835;48.850;8.938;2022-09-30T09:02:22;17.90;;;16.30;;
7587;SDS011;3835;48.850;8.938;2022-09-30T09:04:52;16.33;;;15.13;;
7587;SDS011;3835;48.850;8.938;2022-09-30T09:07:27;17.93;;;16.53;;
7587;SDS011;3835;48.850;8.938;2022-09-30T09:10:06;18.70;;;17.40;;
7587;SDS011;3835;48.850;8.938;2022-09-30T09:12:44;20.10;;;18.47;;
7587;SDS011;3835;48.850;8.938;2022-09-30T09:15:27;18.10;;;16.67;;
7587;SDS011;3835;48.850;8.938;2022-09-30T09:21:28;19.13;;;17.57;;
7587;SDS011;3835;48.850;8.938;2022-09-30T09:24:03;17.57;;;16.17;;
7587;SDS011;3835;48.850;8.938;2022-09-30T09:26:36;19.30;;;17.80;;
7587;SDS011;3835;48.850;8.938;2022-09-30T09:29:08;20.20;;;18.43;;
7587;SDS011;3835;48.850;8.938;2022-09-30T09:31:45;20.13;;;18.63;;
7587;SDS011;3835;48.850;8.938;2022-09-30T09:34:13;20.30;;;18.80;;
7587;SDS011;3835;48.850;8.938;2022-09-30T09:36:44;17.50;;;16.20;;
7587;SDS011;3835;48.850;8.938;2022-09-30T09:39:27;17.87;;;16.47;;
7587;SDS011;3835;48.850;8.938;2022-09-30T09:42:23;18.47;;;17.07;;
7587;SDS011;3835;48.850;8.938;2022-09-30T09:45:02;18.33;;;17.23;;
7587;SDS011;3835;48.850;8.938;2022-09-30T09:47:35;17.37;;;16.17;;
7587;SDS011;3835;48.850;8.938;2022-09-30T09:50:03;15.70;;;14.53;;
7587;SDS011;3835;48.850;8.938;2022-09-30T09:52:45;17.13;;;16.03;;
7587;SDS011;3835;48.850;8.938;2022-09-30T09:55:20;15.97;;;14.90;;
7587;SDS011;3835;48.850;8.938;2022-09-30T09:58:01;15.70;;;14.60;;
7587;SDS011;3835;48.850;8.938;2022-09-30T10:00:31;16.43;;;15.23;;
7587;SDS011;3835;48.850;8.938;2022-09-30T10:03:16;17.83;;;16.77;;
7587;SDS011;3835;48.850;8.938;2022-09-30T10:05:54;17.57;;;15.90;;
7587;SDS011;3835;48.850;8.938;2022-09-30T10:08:26;16.90;;;15.40;;
7587;SDS011;3835;48.850;8.938;2022-09-30T10:10:56;15.10;;;14.00;;
7587;SDS011;3835;48.850;8.938;2022-09-30T10:13:25;15.50;;;14.40;;
7587;SDS011;3835;48.850;8.938;2022-09-30T10:15:56;16.03;;;14.83;;
7587;SDS011;3835;48.850;8.938;2022-09-30T10:18:24;15.47;;;14.53;;
7587;SDS011;3835;48.850;8.938;2022-09-30T10:20:54;15.30;;;14.33;;
7587;SDS011;3835;48.850;8.938;2022-09-30T10:23:28;13.57;;;12.87;;
7587;SDS011;3835;48.850;8.938;2022-09-30T10:25:57;14.10;;;13.33;;
7587;SDS011;3835;48.850;8.938;2022-09-30T10:28:30;14.67;;;13.77;;
7587;SDS011;3835;48.850;8.938;2022-09-30T10:31:01;14.63;;;13.63;;
7587;SDS011;3835;48.850;8.938;2022-09-30T10:33:39;14.80;;;13.73;;
7587;SDS011;3835;48.850;8.938;2022-09-30T10:36:13;13.93;;;13.20;;
7587;SDS011;3835;48.850;8.938;2022-09-30T10:38:47;14.03;;;13.23;;
7587;SDS011;3835;48.850;8.938;2022-09-30T10:41:23;13.23;;;12.17;;
7587;SDS011;3835;48.850;8.938;2022-09-30T10:43:53;14.87;;;13.97;;
7587;SDS011;3835;48.850;8.938;2022-09-30T10:46:23;14.20;;;13.30;;
7587;SDS011;3835;48.850;8.938;2022-09-30T10:48:53;14.90;;;13.90;;
7587;SDS011;3835;48.850;8.938;2022-09-30T10:51:29;15.77;;;14.80;;
7587;SDS011;3835;48.850;8.938;2022-09-30T10:54:01;14.73;;;13.83;;
7587;SDS011;3835;48.850;8.938;2022-09-30T10:56:33;14.67;;;13.73;;
7587;SDS011;3835;48.850;8.938;2022-09-30T10:59:04;14.23;;;13.07;;
7587;SDS011;3835;48.850;8.938;2022-09-30T11:01:44;14.93;;;14.10;;
7587;SDS011;3835;48.850;8.938;2022-09-30T11:04:14;14.93;;;13.93;;
7587;SDS011;3835;48.850;8.938;2022-09-30T11:06:49;13.53;;;12.73;;
7587;SDS011;3835;48.850;8.938;2022-09-30T11:09:19;14.37;;;13.57;;
7587;SDS011;3835;48.850;8.938;2022-09-30T11:11:54;13.13;;;12.40;;
7587;SDS011;3835;48.850;8.938;2022-09-30T11:14:26;15.10;;;14.20;;
7587;SDS011;3835;48.850;8.938;2022-09-30T11:17:03;17.07;;;16.13;;
7587;SDS011;3835;48.850;8.938;2022-09-30T11:19:36;12.50;;;11.90;;
7587;SDS011;3835;48.850;8.938;2022-09-30T11:22:15;14.03;;;13.17;;
7587;SDS011;3835;48.850;8.938;2022-09-30T11:24:53;14.10;;;13.20;;
7587;SDS011;3835;48.850;8.938;2022-09-30T11:27:24;14.07;;;13.17;;
7587;SDS011;3835;48.850;8.938;2022-09-30T11:30:03;14.47;;;13.63;;
7587;SDS011;3835;48.850;8.938;2022-09-30T11:32:43;12.67;;;11.97;;
7587;SDS011;3835;48.850;8.938;2022-09-30T11:35:26;13.47;;;12.67;;
7587;SDS011;3835;48.850;8.938;2022-09-30T11:38:08;15.80;;;14.90;;
7587;SDS011;3835;48.850;8.938;2022-09-30T11:40:41;14.70;;;13.80;;
7587;SDS011;3835;48.850;8.938;2022-09-30T11:43:23;15.63;;;14.77;;
7587;SDS011;3835;48.850;8.938;2022-09-30T11:46:06;12.47;;;11.60;;
7587;SDS011;3835;48.850;8.938;2022-09-30T11:48:51;13.73;;;12.93;;
7587;SDS011;3835;48.850;8.938;2022-09-30T11:51:35;13.37;;;12.50;;
7587;SDS011;3835;48.850;8.938;2022-09-30T11:54:11;12.83;;;12.13;;
7587;SDS011;3835;48.850;8.938;2022-09-30T11:56:48;13.20;;;12.47;;
7587;SDS011;3835;48.850;8.938;2022-09-30T11:59:25;13.77;;;13.07;;
7587;SDS011;3835;48.850;8.938;2022-09-30T12:01:55;12.83;;;12.23;;
7587;SDS011;3835;48.850;8.938;2022-09-30T12:04:29;12.20;;;11.27;;
7587;SDS011;3835;48.850;8.938;2022-09-30T12:07:01;12.90;;;12.10;;
7587;SDS011;3835;48.850;8.938;2022-09-30T12:09:31;13.00;;;12.13;;
7587;SDS011;3835;48.850;8.938;2022-09-30T12:12:05;13.47;;;12.57;;
7587;SDS011;3835;48.850;8.938;2022-09-30T12:14:34;12.70;;;12.00;;
7587;SDS011;3835;48.850;8.938;2022-09-30T12:17:06;14.17;;;13.17;;
7587;SDS011;3835;48.850;8.938;2022-09-30T12:19:44;14.43;;;13.63;;
7587;SDS011;3835;48.850;8.938;2022-09-30T12:22:15;13.73;;;13.03;;
7587;SDS011;3835;48.850;8.938;2022-09-30T12:24:45;13.83;;;13.13;;
7587;SDS011;3835;48.850;8.938;2022-09-30T12:27:14;13.60;;;12.70;;
7587;SDS011;3835;48.850;8.938;2022-09-30T12:29:47;13.90;;;12.97;;
7587;SDS011;3835;48.850;8.938;2022-09-30T12:32:48;14.33;;;13.43;;
7587;SDS011;3835;48.850;8.938;2022-09-30T12:35:55;13.27;;;12.33;;
7587;SDS011;3835;48.850;8.938;2022-09-30T12:38:47;13.90;;;13.13;;
7587;SDS011;3835;48.850;8.938;2022-09-30T12:41:37;13.70;;;13.00;;
7587;SDS011;3835;48.850;8.938;2022-09-30T12:47:30;14.17;;;13.27;;
7587;SDS011;3835;48.850;8.938;2022-09-30T12:50:02;14.80;;;14.07;;
7587;SDS011;3835;48.850;8.938;2022-09-30T12:52:34;12.93;;;12.13;;
7587;SDS011;3835;48.850;8.938;2022-09-30T12:55:04;13.23;;;12.33;;
7587;SDS011;3835;48.850;8.938;2022-09-30T12:57:35;13.27;;;12.47;;
7587;SDS011;3835;48.850;8.938;2022-09-30T13:00:06;12.83;;;12.13;;
7587;SDS011;3835;48.850;8.938;2022-09-30T13:02:40;12.57;;;11.87;;
7587;SDS011;3835;48.850;8.938;2022-09-30T13:08:40;13.67;;;12.97;;
7587;SDS011;3835;48.850;8.938;2022-09-30T13:11:20;13.13;;;12.33;;
7587;SDS011;3835;48.850;8.938;2022-09-30T13:14:11;11.97;;;11.20;;
7587;SDS011;3835;48.850;8.938;2022-09-30T13:17:02;14.03;;;13.33;;
7587;SDS011;3835;48.850;8.938;2022-09-30T13:19:49;14.83;;;13.93;;
7587;SDS011;3835;48.850;8.938;2022-09-30T13:25:25;12.93;;;12.23;;
7587;SDS011;3835;48.850;8.938;2022-09-30T13:27:53;13.03;;;12.37;;
7587;SDS011;3835;48.850;8.938;2022-09-30T13:30:49;13.03;;;12.30;;
7587;SDS011;3835;48.850;8.938;2022-09-30T13:33:41;13.67;;;12.97;;
7587;SDS011;3835;48.850;8.938;2022-09-30T13:36:17;14.97;;;13.87;;
7587;SDS011;3835;48.850;8.938;2022-09-30T13:39:04;13.90;;;13.07;;
7587;SDS011;3835;48.850;8.938;2022-09-30T13:41:49;13.77;;;13.07;;
7587;SDS011;3835;48.850;8.938;2022-09-30T13:44:27;13.30;;;12.30;;
7587;SDS011;3835;48.850;8.938;2022-09-30T13:46:59;12.03;;;11.30;;
7587;SDS011;3835;48.850;8.938;2022-09-30T13:49:37;13.90;;;13.07;;
7587;SDS011;3835;48.850;8.938;2022-09-30T13:52:10;14.73;;;13.83;;
7587;SDS011;3835;48.850;8.938;2022-09-30T13:54:45;12.33;;;11.73;;
7587;SDS011;3835;48.850;8.938;2022-09-30T13:57:17;14.20;;;13.40;;
7587;SDS011;3835;48.850;8.938;2022-09-30T13:59:51;13.87;;;13.10;;
7587;SDS011;3835;48.850;8.938;2022-09-30T14:02:42;12.27;;;11.57;;
7587;SDS011;3835;48.850;8.938;2022-09-30T14:05:25;13.17;;;12.33;;
7587;SDS011;3835;48.850;8.938;2022-09-30T14:08:25;13.13;;;12.27;;
7587;SDS011;3835;48.850;8.938;2022-09-30T14:11:11;13.33;;;12.20;;
7587;SDS011;3835;48.850;8.938;2022-09-30T14:13:53;12.87;;;12.17;;
7587;SDS011;3835;48.850;8.938;2022-09-30T14:19:49;11.67;;;11.07;;
7587;SDS011;3835;48.850;8.938;2022-09-30T14:22:33;11.67;;;11.10;;
7587;SDS011;3835;48.850;8.938;2022-09-30T14:25:02;12.47;;;11.77;;
7587;SDS011;3835;48.850;8.938;2022-09-30T14:27:32;13.40;;;12.60;;
7587;SDS011;3835;48.850;8.938;2022-09-30T14:30:11;12.43;;;11.73;;
7587;SDS011;3835;48.850;8.938;2022-09-30T14:32:42;13.67;;;12.87;;
7587;SDS011;3835;48.850;8.938;2022-09-30T14:35:13;13.40;;;12.70;;
7587;SDS011;3835;48.850;8.938;2022-09-30T14:37:44;11.10;;;10.53;;
7587;SDS011;3835;48.850;8.938;2022-09-30T14:40:15;13.13;;;12.43;;
7587;SDS011;3835;48.850;8.938;2022-09-30T14:42:44;11.47;;;10.97;;
7587;SDS011;3835;48.850;8.938;2022-09-30T14:45:15;12.63;;;12.00;;
7587;SDS011;3835;48.850;8.938;2022-09-30T14:47:50;12.57;;;11.97;;
7587;SDS011;3835;48.850;8.938;2022-09-30T14:50:21;14.77;;;14.07;;
7587;SDS011;3835;48.850;8.938;2022-09-30T14:52:51;14.03;;;13.33;;
7587;SDS011;3835;48.850;8.938;2022-09-30T14:55:22;12.50;;;11.90;;
7587;SDS011;3835;48.850;8.938;2022-09-30T14:57:52;12.70;;;12.00;;
7587;SDS011;3835;48.850;8.938;2022-09-30T15:00:25;13.03;;;12.43;;
7587;SDS011;3835;48.850;8.938;2022-09-30T15:02:55;11.93;;;11.33;;
7587;SDS011;3835;48.850;8.938;2022-09-30T15:05:23;13.23;;;12.53;;
7587;SDS011;3835;48.850;8.938;2022-09-30T15:07:50;13.70;;;13.10;;
7587;SDS011;3835;48.850;8.938;2022-09-30T15:10:19;13.67;;;12.73;;
7587;SDS011;3835;48.850;8.938;2022-09-30T15:12:48;13.30;;;12.60;;
7587;SDS011;3835;48.850;8.938;2022-09-30T15:15:32;13.33;;;12.63;;
7587;SDS011;3835;48.850;8.938;2022-09-30T15:21:04;18.33;;;16.97;;
7587;SDS011;3835;48.850;8.938;2022-09-30T15:23:34;13.63;;;12.93;;
7587;SDS011;3835;48.850;8.938;2022-09-30T15:26:03;13.50;;;12.80;;
7587;SDS011;3835;48.850;8.938;2022-09-30T15:28:31;13.90;;;13.20;;
7587;SDS011;3835;48.850;8.938;2022-09-30T15:31:00;15.23;;;14.33;;
7587;SDS011;3835;48.850;8.938;2022-09-30T15:33:28;14.53;;;13.83;;
7587;SDS011;3835;48.850;8.938;2022-09-30T15:36:00;14.17;;;13.50;;
7587;SDS011;3835;48.850;8.938;2022-09-30T15:38:29;13.07;;;12.27;;
7587;SDS011;3835;48.850;8.938;2022-09-30T15:40:59;13.77;;;13.13;;
7587;SDS011;3835;48.850;8.938;2022-09-30T15:43:31;14.00;;;13.40;;
7587;SDS011;3835;48.850;8.938;2022-09-30T15:46:18;12.60;;;12.00;;